sensor_id;sensor_type;location;lat;lon;timestamp;P1;durP1;ratioP1;P2;durP2;ratioP2
8399;SDS011;4237;47.030;15.396;2023-07-13T00:02:24;0.70;;;0.70;;
8399;SDS011;4237;47.030;15.396;2023-07-13T00:04:53;0.77;;;0.50;;
8399;SDS011;4237;47.030;15.396;2023-07-13T00:07:22;0.40;;;0.40;;
8399;SDS011;4237;47.030;15.396;2023-07-13T00:09:51;1.03;;;0.80;;
8399;SDS011;4237;47.030;15.396;2023-07-13T00:12:27;2.00;;;0.60;;
8399;SDS011;4237;47.030;15.396;2023-07-13T00:14:52;0.53;;;0.53;;
8399;SDS011;4237;47.030;15.396;2023-07-13T00:17:20;3.23;;;1.30;;
8399;SDS011;4237;47.030;15.396;2023-07-13T00:19:49;2.13;;;0.50;;
8399;SDS011;4237;47.030;15.396;2023-07-13T00:22:17;1.53;;;0.90;;
8399;SDS011;4237;47.030;15.396;2023-07-13T00:24:46;1.97;;;0.60;;
8399;SDS011;4237;47.030;15.396;2023-07-13T00:27:14;1.00;;;0.43;;
8399;SDS011;4237;47.030;15.396;2023-07-13T00:29:43;0.83;;;0.47;;
8399;SDS011;4237;47.030;15.396;2023-07-13T00:32:12;1.17;;;0.43;;
8399;SDS011;4237;47.030;15.396;2023-07-13T00:34:40;0.53;;;0.53;;
8399;SDS011;4237;47.030;15.396;2023-07-13T00:37:08;1.43;;;0.63;;
8399;SDS011;4237;47.030;15.396;2023-07-13T00:39:37;0.70;;;0.60;;
8399;SDS011;4237;47.030;15.396;2023-07-13T00:42:06;0.40;;;0.40;;
8399;SDS011;4237;47.030;15.396;2023-07-13T00:44:34;1.60;;;0.50;;
8399;SDS011;4237;47.030;15.396;2023-07-13T00:47:03;0.87;;;0.70;;
8399;SDS011;4237;47.030;15.396;2023-07-13T00:49:31;0.73;;;0.50;;
8399;SDS011;4237;47.030;15.396;2023-07-13T00:52:06;1.43;;;0.80;;
8399;SDS011;4237;47.030;15.396;2023-07-13T00:54:34;4.07;;;0.50;;
8399;SDS011;4237;47.030;15.396;2023-07-13T00:57:04;0.53;;;0.37;;
8399;SDS011;4237;47.030;15.396;2023-07-13T00:59:33;0.37;;;0.37;;
8399;SDS011;4237;47.030;15.396;2023-07-13T01:02:02;4.03;;;0.70;;
8399;SDS011;4237;47.030;15.396;2023-07-13T01:04:31;0.43;;;0.40;;
8399;SDS011;4237;47.030;15.396;2023-07-13T01:06:59;2.73;;;0.70;;
8399;SDS011;4237;47.030;15.396;2023-07-13T01:09:28;0.83;;;0.63;;
8399;SDS011;4237;47.030;15.396;2023-07-13T01:11:56;0.63;;;0.50;;
8399;SDS011;4237;47.030;15.396;2023-07-13T01:14:24;0.93;;;0.60;;
8399;SDS011;4237;47.030;15.396;2023-07-13T01:16:52;0.73;;;0.70;;
8399;SDS011;4237;47.030;15.396;2023-07-13T01:19:25;0.70;;;0.50;;
8399;SDS011;4237;47.030;15.396;2023-07-13T01:21:52;1.40;;;0.47;;
8399;SDS011;4237;47.030;15.396;2023-07-13T01:24:21;0.87;;;0.50;;
8399;SDS011;4237;47.030;15.396;2023-07-13T01:26:49;0.87;;;0.60;;
8399;SDS011;4237;47.030;15.396;2023-07-13T01:29:17;0.93;;;0.60;;
8399;SDS011;4237;47.030;15.396;2023-07-13T01:31:45;0.90;;;0.90;;
8399;SDS011;4237;47.030;15.396;2023-07-13T01:34:13;0.93;;;0.60;;
8399;SDS011;4237;47.030;15.396;2023-07-13T01:36:41;1.07;;;0.50;;
8399;SDS011;4237;47.030;15.396;2023-07-13T01:39:10;1.57;;;0.60;;
8399;SDS011;4237;47.030;15.396;2023-07-13T01:41:38;2.30;;;0.90;;
8399;SDS011;4237;47.030;15.396;2023-07-13T01:44:06;4.27;;;1.07;;
8399;SDS011;4237;47.030;15.396;2023-07-13T01:46:34;3.63;;;1.43;;
8399;SDS011;4237;47.030;15.396;2023-07-13T01:49:03;2.33;;;1.10;;
8399;SDS011;4237;47.030;15.396;2023-07-13T01:51:31;3.00;;;1.03;;
8399;SDS011;4237;47.030;15.396;2023-07-13T01:53:59;2.87;;;1.03;;
8399;SDS011;4237;47.030;15.396;2023-07-13T01:56:27;1.30;;;1.03;;
8399;SDS011;4237;47.030;15.396;2023-07-13T01:58:55;3.40;;;1.00;;
8399;SDS011;4237;47.030;15.396;2023-07-13T02:01:24;1.03;;;0.90;;
8399;SDS011;4237;47.030;15.396;2023-07-13T02:03:52;2.53;;;0.73;;
8399;SDS011;4237;47.030;15.396;2023-07-13T02:06:20;3.77;;;0.87;;
8399;SDS011;4237;47.030;15.396;2023-07-13T02:08:48;1.30;;;0.80;;
8399;SDS011;4237;47.030;15.396;2023-07-13T02:11:17;1.97;;;0.90;;
8399;SDS011;4237;47.030;15.396;2023-07-13T02:13:45;1.47;;;0.90;;
8399;SDS011;4237;47.030;15.396;2023-07-13T02:16:13;2.83;;;1.00;;
8399;SDS011;4237;47.030;15.396;2023-07-13T02:18:41;1.47;;;1.10;;
8399;SDS011;4237;47.030;15.396;2023-07-13T02:21:09;3.00;;;1.00;;
8399;SDS011;4237;47.030;15.396;2023-07-13T02:23:37;0.97;;;0.80;;
8399;SDS011;4237;47.030;15.396;2023-07-13T02:26:06;2.50;;;1.53;;
8399;SDS011;4237;47.030;15.396;2023-07-13T02:28:34;1.20;;;0.90;;
8399;SDS011;4237;47.030;15.396;2023-07-13T02:31:11;1.33;;;0.80;;
8399;SDS011;4237;47.030;15.396;2023-07-13T02:33:34;2.23;;;1.03;;
8399;SDS011;4237;47.030;15.396;2023-07-13T02:36:03;3.83;;;1.27;;
8399;SDS011;4237;47.030;15.396;2023-07-13T02:38:33;1.33;;;0.90;;
8399;SDS011;4237;47.030;15.396;2023-07-13T02:41:02;3.20;;;1.10;;
8399;SDS011;4237;47.030;15.396;2023-07-13T02:43:31;2.07;;;1.13;;
8399;SDS011;4237;47.030;15.396;2023-07-13T02:45:59;2.77;;;1.20;;
8399;SDS011;4237;47.030;15.396;2023-07-13T02:48:37;1.87;;;1.17;;
8399;SDS011;4237;47.030;15.396;2023-07-13T02:51:06;0.80;;;0.80;;
8399;SDS011;4237;47.030;15.396;2023-07-13T02:53:35;1.63;;;0.90;;
8399;SDS011;4237;47.030;15.396;2023-07-13T02:56:03;2.40;;;1.10;;
8399;SDS011;4237;47.030;15.396;2023-07-13T02:58:32;1.43;;;1.07;;
8399;SDS011;4237;47.030;15.396;2023-07-13T03:01:05;2.70;;;1.00;;
8399;SDS011;4237;47.030;15.396;2023-07-13T03:03:31;2.13;;;1.60;;
8399;SDS011;4237;47.030;15.396;2023-07-13T03:06:00;2.07;;;1.40;;
8399;SDS011;4237;47.030;15.396;2023-07-13T03:08:30;1.73;;;1.30;;
8399;SDS011;4237;47.030;15.396;2023-07-13T03:11:03;1.43;;;1.20;;
8399;SDS011;4237;47.030;15.396;2023-07-13T03:13:32;3.80;;;1.23;;
8399;SDS011;4237;47.030;15.396;2023-07-13T03:16:00;2.50;;;1.20;;
8399;SDS011;4237;47.030;15.396;2023-07-13T03:18:28;1.37;;;1.20;;
8399;SDS011;4237;47.030;15.396;2023-07-13T03:20:57;1.90;;;1.30;;
8399;SDS011;4237;47.030;15.396;2023-07-13T03:23:26;1.90;;;1.37;;
8399;SDS011;4237;47.030;15.396;2023-07-13T03:26:01;1.67;;;1.30;;
8399;SDS011;4237;47.030;15.396;2023-07-13T03:28:29;2.17;;;1.20;;
8399;SDS011;4237;47.030;15.396;2023-07-13T03:31:05;2.20;;;1.40;;
8399;SDS011;4237;47.030;15.396;2023-07-13T03:33:33;1.70;;;1.30;;
8399;SDS011;4237;47.030;15.396;2023-07-13T03:36:02;2.07;;;1.10;;
8399;SDS011;4237;47.030;15.396;2023-07-13T03:38:30;1.10;;;1.00;;
8399;SDS011;4237;47.030;15.396;2023-07-13T03:40:59;4.47;;;1.10;;
8399;SDS011;4237;47.030;15.396;2023-07-13T03:43:28;1.93;;;1.30;;
8399;SDS011;4237;47.030;15.396;2023-07-13T03:45:56;2.03;;;1.20;;
8399;SDS011;4237;47.030;15.396;2023-07-13T03:48:24;2.23;;;1.27;;
8399;SDS011;4237;47.030;15.396;2023-07-13T03:50:52;5.33;;;1.50;;
8399;SDS011;4237;47.030;15.396;2023-07-13T03:53:20;2.97;;;1.30;;
8399;SDS011;4237;47.030;15.396;2023-07-13T03:55:49;1.57;;;1.43;;
8399;SDS011;4237;47.030;15.396;2023-07-13T03:58:33;2.60;;;1.17;;
8399;SDS011;4237;47.030;15.396;2023-07-13T04:01:02;2.40;;;1.20;;
8399;SDS011;4237;47.030;15.396;2023-07-13T04:03:31;5.13;;;1.40;;
8399;SDS011;4237;47.030;15.396;2023-07-13T04:06:00;4.00;;;1.30;;
8399;SDS011;4237;47.030;15.396;2023-07-13T04:08:29;1.77;;;1.03;;
8399;SDS011;4237;47.030;15.396;2023-07-13T04:10:58;1.33;;;1.23;;
8399;SDS011;4237;47.030;15.396;2023-07-13T04:13:27;1.43;;;1.33;;
8399;SDS011;4237;47.030;15.396;2023-07-13T04:15:55;3.70;;;1.23;;
8399;SDS011;4237;47.030;15.396;2023-07-13T04:18:24;1.40;;;1.30;;
8399;SDS011;4237;47.030;15.396;2023-07-13T04:20:52;3.33;;;1.40;;
8399;SDS011;4237;47.030;15.396;2023-07-13T04:23:20;1.30;;;1.20;;
8399;SDS011;4237;47.030;15.396;2023-07-13T04:25:49;2.07;;;1.30;;
8399;SDS011;4237;47.030;15.396;2023-07-13T04:28:20;1.60;;;1.20;;
8399;SDS011;4237;47.030;15.396;2023-07-13T04:30:48;2.00;;;1.67;;
8399;SDS011;4237;47.030;15.396;2023-07-13T04:33:16;2.97;;;1.30;;
8399;SDS011;4237;47.030;15.396;2023-07-13T04:35:45;3.57;;;1.50;;
8399;SDS011;4237;47.030;15.396;2023-07-13T04:38:15;2.17;;;1.50;;
8399;SDS011;4237;47.030;15.396;2023-07-13T04:40:46;2.53;;;1.43;;
8399;SDS011;4237;47.030;15.396;2023-07-13T04:43:15;1.80;;;1.23;;
8399;SDS011;4237;47.030;15.396;2023-07-13T04:45:43;2.13;;;1.40;;
8399;SDS011;4237;47.030;15.396;2023-07-13T04:48:12;1.40;;;1.20;;
8399;SDS011;4237;47.030;15.396;2023-07-13T04:50:40;2.97;;;1.13;;
8399;SDS011;4237;47.030;15.396;2023-07-13T04:53:08;1.87;;;1.10;;
8399;SDS011;4237;47.030;15.396;2023-07-13T04:55:37;2.97;;;1.53;;
8399;SDS011;4237;47.030;15.396;2023-07-13T04:58:06;1.23;;;1.13;;
8399;SDS011;4237;47.030;15.396;2023-07-13T05:00:34;2.50;;;1.03;;
8399;SDS011;4237;47.030;15.396;2023-07-13T05:03:02;4.30;;;0.93;;
8399;SDS011;4237;47.030;15.396;2023-07-13T05:05:30;2.43;;;1.20;;
8399;SDS011;4237;47.030;15.396;2023-07-13T05:07:58;3.30;;;1.10;;
8399;SDS011;4237;47.030;15.396;2023-07-13T05:10:27;1.70;;;1.10;;
8399;SDS011;4237;47.030;15.396;2023-07-13T05:12:55;1.07;;;0.97;;
8399;SDS011;4237;47.030;15.396;2023-07-13T05:15:23;1.77;;;1.10;;
8399;SDS011;4237;47.030;15.396;2023-07-13T05:17:52;1.53;;;1.00;;
8399;SDS011;4237;47.030;15.396;2023-07-13T05:20:20;1.03;;;0.93;;
8399;SDS011;4237;47.030;15.396;2023-07-13T05:22:49;3.53;;;1.10;;
8399;SDS011;4237;47.030;15.396;2023-07-13T05:25:17;2.20;;;1.30;;
8399;SDS011;4237;47.030;15.396;2023-07-13T05:27:46;1.20;;;0.90;;
8399;SDS011;4237;47.030;15.396;2023-07-13T05:30:14;1.13;;;0.90;;
8399;SDS011;4237;47.030;15.396;2023-07-13T05:32:43;3.93;;;1.40;;
8399;SDS011;4237;47.030;15.396;2023-07-13T05:35:11;1.20;;;0.77;;
8399;SDS011;4237;47.030;15.396;2023-07-13T05:37:39;1.40;;;1.00;;
8399;SDS011;4237;47.030;15.396;2023-07-13T05:40:07;1.33;;;0.80;;
8399;SDS011;4237;47.030;15.396;2023-07-13T05:42:36;2.07;;;1.00;;
8399;SDS011;4237;47.030;15.396;2023-07-13T05:45:04;0.80;;;0.80;;
8399;SDS011;4237;47.030;15.396;2023-07-13T05:47:32;2.57;;;1.10;;
8399;SDS011;4237;47.030;15.396;2023-07-13T05:50:00;1.07;;;1.00;;
8399;SDS011;4237;47.030;15.396;2023-07-13T05:52:28;4.03;;;0.90;;
8399;SDS011;4237;47.030;15.396;2023-07-13T05:54:57;1.83;;;0.63;;
8399;SDS011;4237;47.030;15.396;2023-07-13T05:57:25;0.73;;;0.63;;
8399;SDS011;4237;47.030;15.396;2023-07-13T05:59:53;1.23;;;1.10;;
8399;SDS011;4237;47.030;15.396;2023-07-13T06:02:21;2.37;;;1.13;;
8399;SDS011;4237;47.030;15.396;2023-07-13T06:04:49;0.80;;;0.80;;
8399;SDS011;4237;47.030;15.396;2023-07-13T06:07:17;2.63;;;0.80;;
8399;SDS011;4237;47.030;15.396;2023-07-13T06:09:46;1.33;;;0.70;;
8399;SDS011;4237;47.030;15.396;2023-07-13T06:12:14;3.50;;;0.87;;
8399;SDS011;4237;47.030;15.396;2023-07-13T06:14:42;1.60;;;0.90;;
8399;SDS011;4237;47.030;15.396;2023-07-13T06:17:10;0.83;;;0.80;;
8399;SDS011;4237;47.030;15.396;2023-07-13T06:19:38;1.87;;;0.80;;
8399;SDS011;4237;47.030;15.396;2023-07-13T06:22:06;3.83;;;0.80;;
8399;SDS011;4237;47.030;15.396;2023-07-13T06:24:35;1.00;;;0.77;;
8399;SDS011;4237;47.030;15.396;2023-07-13T06:27:03;1.87;;;1.00;;
8399;SDS011;4237;47.030;15.396;2023-07-13T06:29:31;2.13;;;0.70;;
8399;SDS011;4237;47.030;15.396;2023-07-13T06:32:00;1.27;;;0.70;;
8399;SDS011;4237;47.030;15.396;2023-07-13T06:34:28;0.50;;;0.50;;
8399;SDS011;4237;47.030;15.396;2023-07-13T06:36:56;4.00;;;0.50;;
8399;SDS011;4237;47.030;15.396;2023-07-13T06:39:24;1.63;;;0.93;;
8399;SDS011;4237;47.030;15.396;2023-07-13T06:41:52;1.10;;;0.50;;
8399;SDS011;4237;47.030;15.396;2023-07-13T06:44:21;1.00;;;0.60;;
8399;SDS011;4237;47.030;15.396;2023-07-13T06:46:49;0.97;;;0.63;;
8399;SDS011;4237;47.030;15.396;2023-07-13T06:49:17;0.73;;;0.50;;
8399;SDS011;4237;47.030;15.396;2023-07-13T06:51:45;1.90;;;0.80;;
8399;SDS011;4237;47.030;15.396;2023-07-13T06:54:13;0.50;;;0.50;;
8399;SDS011;4237;47.030;15.396;2023-07-13T06:56:41;1.40;;;0.60;;
8399;SDS011;4237;47.030;15.396;2023-07-13T06:59:10;1.12;;;0.40;;
8399;SDS011;4237;47.030;15.396;2023-07-13T07:01:38;0.93;;;0.70;;
8399;SDS011;4237;47.030;15.396;2023-07-13T07:04:06;1.05;;;0.60;;
8399;SDS011;4237;47.030;15.396;2023-07-13T07:06:34;1.00;;;0.50;;
8399;SDS011;4237;47.030;15.396;2023-07-13T07:09:02;0.60;;;0.60;;
8399;SDS011;4237;47.030;15.396;2023-07-13T07:11:31;0.70;;;0.65;;
8399;SDS011;4237;47.030;15.396;2023-07-13T07:13:59;1.22;;;0.60;;
8399;SDS011;4237;47.030;15.396;2023-07-13T07:16:27;1.95;;;0.40;;
8399;SDS011;4237;47.030;15.396;2023-07-13T07:18:55;1.60;;;0.70;;
8399;SDS011;4237;47.030;15.396;2023-07-13T07:21:23;0.35;;;0.35;;
8399;SDS011;4237;47.030;15.396;2023-07-13T07:23:53;0.50;;;0.50;;
8399;SDS011;4237;47.030;15.396;2023-07-13T07:26:21;2.10;;;0.60;;
8399;SDS011;4237;47.030;15.396;2023-07-13T07:28:49;0.55;;;0.55;;
8399;SDS011;4237;47.030;15.396;2023-07-13T07:31:17;0.85;;;0.85;;
8399;SDS011;4237;47.030;15.396;2023-07-13T07:33:46;0.80;;;0.80;;
8399;SDS011;4237;47.030;15.396;2023-07-13T07:36:14;0.62;;;0.60;;
8399;SDS011;4237;47.030;15.396;2023-07-13T07:38:43;1.40;;;0.60;;
8399;SDS011;4237;47.030;15.396;2023-07-13T07:41:12;1.52;;;0.70;;
8399;SDS011;4237;47.030;15.396;2023-07-13T07:43:40;0.70;;;0.60;;
8399;SDS011;4237;47.030;15.396;2023-07-13T07:46:09;1.50;;;0.78;;
8399;SDS011;4237;47.030;15.396;2023-07-13T07:48:37;1.32;;;0.50;;
8399;SDS011;4237;47.030;15.396;2023-07-13T07:51:05;0.60;;;0.60;;
8399;SDS011;4237;47.030;15.396;2023-07-13T07:53:33;0.45;;;0.45;;
8399;SDS011;4237;47.030;15.396;2023-07-13T07:56:01;1.37;;;0.60;;
8399;SDS011;4237;47.030;15.396;2023-07-13T07:58:29;0.60;;;0.60;;
8399;SDS011;4237;47.030;15.396;2023-07-13T08:01:04;3.62;;;0.50;;
8399;SDS011;4237;47.030;15.396;2023-07-13T08:03:33;1.62;;;0.47;;
8399;SDS011;4237;47.030;15.396;2023-07-13T08:06:01;1.05;;;0.60;;
8399;SDS011;4237;47.030;15.396;2023-07-13T08:08:30;0.65;;;0.65;;
8399;SDS011;4237;47.030;15.396;2023-07-13T08:11:01;1.37;;;0.45;;
8399;SDS011;4237;47.030;15.396;2023-07-13T08:13:28;1.67;;;0.60;;
8399;SDS011;4237;47.030;15.396;2023-07-13T08:15:56;1.00;;;0.68;;
8399;SDS011;4237;47.030;15.396;2023-07-13T08:18:24;0.42;;;0.40;;
8399;SDS011;4237;47.030;15.396;2023-07-13T08:20:52;0.60;;;0.60;;
8399;SDS011;4237;47.030;15.396;2023-07-13T08:23:22;1.70;;;0.57;;
8399;SDS011;4237;47.030;15.396;2023-07-13T08:25:56;2.30;;;0.78;;
8399;SDS011;4237;47.030;15.396;2023-07-13T08:28:21;0.60;;;0.50;;
8399;SDS011;4237;47.030;15.396;2023-07-13T08:30:49;0.65;;;0.60;;
8399;SDS011;4237;47.030;15.396;2023-07-13T08:33:18;0.50;;;0.50;;
8399;SDS011;4237;47.030;15.396;2023-07-13T08:35:47;0.80;;;0.50;;
8399;SDS011;4237;47.030;15.396;2023-07-13T08:38:16;0.47;;;0.47;;
8399;SDS011;4237;47.030;15.396;2023-07-13T08:40:48;0.30;;;0.30;;
8399;SDS011;4237;47.030;15.396;2023-07-13T08:43:18;0.50;;;0.42;;
8399;SDS011;4237;47.030;15.396;2023-07-13T08:45:49;0.70;;;0.40;;
8399;SDS011;4237;47.030;15.396;2023-07-13T08:48:23;1.20;;;0.40;;
8399;SDS011;4237;47.030;15.396;2023-07-13T08:50:58;0.40;;;0.40;;
8399;SDS011;4237;47.030;15.396;2023-07-13T08:53:16;0.60;;;0.40;;
8399;SDS011;4237;47.030;15.396;2023-07-13T08:55:44;0.65;;;0.57;;
8399;SDS011;4237;47.030;15.396;2023-07-13T08:58:13;0.80;;;0.60;;
8399;SDS011;4237;47.030;15.396;2023-07-13T09:00:52;1.15;;;0.57;;
8399;SDS011;4237;47.030;15.396;2023-07-13T09:03:22;2.98;;;1.05;;
8399;SDS011;4237;47.030;15.396;2023-07-13T09:05:53;0.78;;;0.72;;
8399;SDS011;4237;47.030;15.396;2023-07-13T09:08:38;0.40;;;0.40;;
8399;SDS011;4237;47.030;15.396;2023-07-13T09:13:47;0.68;;;0.68;;
8399;SDS011;4237;47.030;15.396;2023-07-13T09:16:10;1.95;;;0.70;;
8399;SDS011;4237;47.030;15.396;2023-07-13T09:18:45;0.50;;;0.50;;
8399;SDS011;4237;47.030;15.396;2023-07-13T09:23:38;0.62;;;0.62;;
8399;SDS011;4237;47.030;15.396;2023-07-13T09:28:43;0.65;;;0.65;;
8399;SDS011;4237;47.030;15.396;2023-07-13T09:31:15;0.60;;;0.60;;
8399;SDS011;4237;47.030;15.396;2023-07-13T09:33:44;0.42;;;0.40;;
8399;SDS011;4237;47.030;15.396;2023-07-13T09:38:48;0.55;;;0.50;;
8399;SDS011;4237;47.030;15.396;2023-07-13T09:41:19;0.45;;;0.45;;
8399;SDS011;4237;47.030;15.396;2023-07-13T09:46:33;0.57;;;0.57;;
8399;SDS011;4237;47.030;15.396;2023-07-13T09:49:01;1.05;;;0.70;;
8399;SDS011;4237;47.030;15.396;2023-07-13T09:51:29;0.40;;;0.40;;
8399;SDS011;4237;47.030;15.396;2023-07-13T09:53:58;1.42;;;0.70;;
8399;SDS011;4237;47.030;15.396;2023-07-13T09:56:27;0.50;;;0.50;;
8399;SDS011;4237;47.030;15.396;2023-07-13T09:58:56;0.70;;;0.70;;
8399;SDS011;4237;47.030;15.396;2023-07-13T10:01:32;0.47;;;0.42;;
8399;SDS011;4237;47.030;15.396;2023-07-13T10:04:01;2.20;;;0.70;;
8399;SDS011;4237;47.030;15.396;2023-07-13T10:06:29;0.53;;;0.53;;
8399;SDS011;4237;47.030;15.396;2023-07-13T10:08:57;0.60;;;0.60;;
8399;SDS011;4237;47.030;15.396;2023-07-13T10:11:29;1.17;;;0.37;;
8399;SDS011;4237;47.030;15.396;2023-07-13T10:16:48;1.37;;;0.60;;
8399;SDS011;4237;47.030;15.396;2023-07-13T10:19:14;0.78;;;0.78;;
8399;SDS011;4237;47.030;15.396;2023-07-13T10:21:55;0.47;;;0.45;;
8399;SDS011;4237;47.030;15.396;2023-07-13T10:24:24;0.72;;;0.72;;
8399;SDS011;4237;47.030;15.396;2023-07-13T10:29:41;0.70;;;0.62;;
8399;SDS011;4237;47.030;15.396;2023-07-13T10:32:09;0.82;;;0.70;;
8399;SDS011;4237;47.030;15.396;2023-07-13T10:34:39;0.60;;;0.57;;
8399;SDS011;4237;47.030;15.396;2023-07-13T10:37:11;0.78;;;0.78;;
8399;SDS011;4237;47.030;15.396;2023-07-13T10:39:38;1.07;;;0.75;;
8399;SDS011;4237;47.030;15.396;2023-07-13T10:42:08;0.70;;;0.70;;
8399;SDS011;4237;47.030;15.396;2023-07-13T10:44:36;0.85;;;0.75;;
8399;SDS011;4237;47.030;15.396;2023-07-13T10:47:06;2.60;;;0.98;;
8399;SDS011;4237;47.030;15.396;2023-07-13T10:49:35;2.67;;;0.75;;
8399;SDS011;4237;47.030;15.396;2023-07-13T10:52:04;0.82;;;0.70;;
8399;SDS011;4237;47.030;15.396;2023-07-13T10:54:33;1.02;;;0.70;;
8399;SDS011;4237;47.030;15.396;2023-07-13T10:59:40;1.55;;;0.82;;
8399;SDS011;4237;47.030;15.396;2023-07-13T11:02:13;2.15;;;0.60;;
8399;SDS011;4237;47.030;15.396;2023-07-13T11:04:46;0.50;;;0.50;;
8399;SDS011;4237;47.030;15.396;2023-07-13T11:07:32;1.05;;;0.82;;
8399;SDS011;4237;47.030;15.396;2023-07-13T11:09:40;0.80;;;0.75;;
8399;SDS011;4237;47.030;15.396;2023-07-13T11:28:10;2.92;;;0.60;;
8399;SDS011;4237;47.030;15.396;2023-07-13T11:30:31;0.57;;;0.57;;
8399;SDS011;4237;47.030;15.396;2023-07-13T11:33:04;0.80;;;0.80;;
8399;SDS011;4237;47.030;15.396;2023-07-13T11:35:36;1.77;;;0.93;;
8399;SDS011;4237;47.030;15.396;2023-07-13T11:38:12;3.10;;;0.60;;
8399;SDS011;4237;47.030;15.396;2023-07-13T11:40:38;3.20;;;0.88;;
8399;SDS011;4237;47.030;15.396;2023-07-13T11:43:06;0.68;;;0.68;;
8399;SDS011;4237;47.030;15.396;2023-07-13T11:45:35;4.37;;;0.75;;
8399;SDS011;4237;47.030;15.396;2023-07-13T11:48:03;0.60;;;0.60;;
8399;SDS011;4237;47.030;15.396;2023-07-13T11:50:31;0.98;;;0.80;;
8399;SDS011;4237;47.030;15.396;2023-07-13T11:53:00;0.80;;;0.80;;
8399;SDS011;4237;47.030;15.396;2023-07-13T11:55:28;0.77;;;0.77;;
8399;SDS011;4237;47.030;15.396;2023-07-13T11:57:57;0.72;;;0.72;;
8399;SDS011;4237;47.030;15.396;2023-07-13T12:00:28;2.47;;;1.20;;
8399;SDS011;4237;47.030;15.396;2023-07-13T12:02:57;0.70;;;0.70;;
8399;SDS011;4237;47.030;15.396;2023-07-13T12:05:26;0.90;;;0.90;;
8399;SDS011;4237;47.030;15.396;2023-07-13T12:07:54;2.65;;;0.90;;
8399;SDS011;4237;47.030;15.396;2023-07-13T12:10:24;2.17;;;0.80;;
8399;SDS011;4237;47.030;15.396;2023-07-13T12:12:57;1.40;;;0.93;;
8399;SDS011;4237;47.030;15.396;2023-07-13T12:15:43;3.47;;;0.68;;
8399;SDS011;4237;47.030;15.396;2023-07-13T12:18:15;0.70;;;0.70;;
8399;SDS011;4237;47.030;15.396;2023-07-13T12:20:39;0.55;;;0.55;;
8399;SDS011;4237;47.030;15.396;2023-07-13T12:23:19;2.15;;;0.72;;
8399;SDS011;4237;47.030;15.396;2023-07-13T12:25:40;0.98;;;0.70;;
8399;SDS011;4237;47.030;15.396;2023-07-13T12:28:30;1.12;;;0.88;;
8399;SDS011;4237;47.030;15.396;2023-07-13T12:30:49;1.97;;;1.00;;
8399;SDS011;4237;47.030;15.396;2023-07-13T12:33:18;0.87;;;0.77;;
8399;SDS011;4237;47.030;15.396;2023-07-13T12:35:47;0.90;;;0.90;;
8399;SDS011;4237;47.030;15.396;2023-07-13T12:38:16;1.57;;;1.00;;
8399;SDS011;4237;47.030;15.396;2023-07-13T12:40:44;1.20;;;1.00;;
8399;SDS011;4237;47.030;15.396;2023-07-13T12:43:13;2.93;;;0.90;;
8399;SDS011;4237;47.030;15.396;2023-07-13T12:48:28;3.27;;;1.27;;
8399;SDS011;4237;47.030;15.396;2023-07-13T12:51:00;4.30;;;0.90;;
8399;SDS011;4237;47.030;15.396;2023-07-13T12:53:30;1.43;;;1.33;;
8399;SDS011;4237;47.030;15.396;2023-07-13T12:56:00;3.90;;;0.80;;
8399;SDS011;4237;47.030;15.396;2023-07-13T12:58:30;2.83;;;1.00;;
8399;SDS011;4237;47.030;15.396;2023-07-13T13:00:59;1.60;;;0.90;;
8399;SDS011;4237;47.030;15.396;2023-07-13T13:03:35;0.70;;;0.70;;
8399;SDS011;4237;47.030;15.396;2023-07-13T13:06:04;2.57;;;1.00;;
8399;SDS011;4237;47.030;15.396;2023-07-13T13:08:34;2.10;;;1.00;;
8399;SDS011;4237;47.030;15.396;2023-07-13T13:11:02;1.10;;;0.90;;
8399;SDS011;4237;47.030;15.396;2023-07-13T13:13:32;1.00;;;0.90;;
8399;SDS011;4237;47.030;15.396;2023-07-13T13:18:39;2.20;;;1.17;;
8399;SDS011;4237;47.030;15.396;2023-07-13T13:21:07;0.83;;;0.73;;
8399;SDS011;4237;47.030;15.396;2023-07-13T13:23:36;0.80;;;0.80;;
8399;SDS011;4237;47.030;15.396;2023-07-13T13:26:05;1.77;;;0.87;;
8399;SDS011;4237;47.030;15.396;2023-07-13T13:28:34;0.83;;;0.73;;
8399;SDS011;4237;47.030;15.396;2023-07-13T13:31:02;2.07;;;0.93;;
8399;SDS011;4237;47.030;15.396;2023-07-13T13:33:30;1.00;;;0.97;;
8399;SDS011;4237;47.030;15.396;2023-07-13T13:36:00;1.63;;;1.00;;
8399;SDS011;4237;47.030;15.396;2023-07-13T13:38:28;0.97;;;0.90;;
8399;SDS011;4237;47.030;15.396;2023-07-13T13:40:56;3.03;;;1.00;;
8399;SDS011;4237;47.030;15.396;2023-07-13T13:43:25;1.80;;;1.10;;
8399;SDS011;4237;47.030;15.396;2023-07-13T13:45:59;0.73;;;0.73;;
8399;SDS011;4237;47.030;15.396;2023-07-13T13:48:33;5.73;;;0.97;;
8399;SDS011;4237;47.030;15.396;2023-07-13T13:50:55;1.00;;;0.90;;
8399;SDS011;4237;47.030;15.396;2023-07-13T13:53:23;1.20;;;0.83;;
8399;SDS011;4237;47.030;15.396;2023-07-13T13:55:51;1.00;;;0.80;;
8399;SDS011;4237;47.030;15.396;2023-07-13T13:58:20;0.57;;;0.57;;
8399;SDS011;4237;47.030;15.396;2023-07-13T14:00:48;1.13;;;1.03;;
8399;SDS011;4237;47.030;15.396;2023-07-13T14:03:18;0.70;;;0.63;;
8399;SDS011;4237;47.030;15.396;2023-07-13T14:05:47;1.33;;;0.80;;
8399;SDS011;4237;47.030;15.396;2023-07-13T14:08:16;2.97;;;1.00;;
8399;SDS011;4237;47.030;15.396;2023-07-13T14:10:45;1.47;;;0.70;;
8399;SDS011;4237;47.030;15.396;2023-07-13T14:13:16;1.10;;;0.90;;
8399;SDS011;4237;47.030;15.396;2023-07-13T14:15:45;1.43;;;1.10;;
8399;SDS011;4237;47.030;15.396;2023-07-13T14:18:15;0.87;;;0.87;;
8399;SDS011;4237;47.030;15.396;2023-07-13T14:20:47;2.73;;;1.07;;
8399;SDS011;4237;47.030;15.396;2023-07-13T14:23:15;0.73;;;0.73;;
8399;SDS011;4237;47.030;15.396;2023-07-13T14:45:27;1.60;;;0.70;;
8399;SDS011;4237;47.030;15.396;2023-07-13T14:47:55;1.53;;;0.70;;
8399;SDS011;4237;47.030;15.396;2023-07-13T14:50:26;1.10;;;0.70;;
8399;SDS011;4237;47.030;15.396;2023-07-13T14:52:53;0.80;;;0.80;;
8399;SDS011;4237;47.030;15.396;2023-07-13T14:55:21;1.37;;;0.90;;
8399;SDS011;4237;47.030;15.396;2023-07-13T14:57:52;1.73;;;1.00;;
8399;SDS011;4237;47.030;15.396;2023-07-13T15:00:20;0.80;;;0.80;;
8399;SDS011;4237;47.030;15.396;2023-07-13T15:02:53;0.80;;;0.80;;
8399;SDS011;4237;47.030;15.396;2023-07-13T15:05:24;4.47;;;1.17;;
8399;SDS011;4237;47.030;15.396;2023-07-13T15:07:52;0.80;;;0.80;;
8399;SDS011;4237;47.030;15.396;2023-07-13T15:10:23;2.10;;;1.10;;
8399;SDS011;4237;47.030;15.396;2023-07-13T15:12:57;1.77;;;0.80;;
8399;SDS011;4237;47.030;15.396;2023-07-13T15:15:23;1.07;;;0.90;;
8399;SDS011;4237;47.030;15.396;2023-07-13T15:17:53;1.57;;;1.00;;
8399;SDS011;4237;47.030;15.396;2023-07-13T15:20:27;2.57;;;1.33;;
8399;SDS011;4237;47.030;15.396;2023-07-13T15:22:56;6.03;;;1.23;;
8399;SDS011;4237;47.030;15.396;2023-07-13T15:25:25;5.37;;;1.33;;
8399;SDS011;4237;47.030;15.396;2023-07-13T15:27:54;1.73;;;0.97;;
8399;SDS011;4237;47.030;15.396;2023-07-13T15:30:27;1.70;;;1.00;;
8399;SDS011;4237;47.030;15.396;2023-07-13T15:33:05;1.63;;;1.10;;
8399;SDS011;4237;47.030;15.396;2023-07-13T15:35:27;4.10;;;1.10;;
8399;SDS011;4237;47.030;15.396;2023-07-13T15:37:55;1.10;;;1.00;;
8399;SDS011;4237;47.030;15.396;2023-07-13T15:45:21;2.60;;;1.50;;
8399;SDS011;4237;47.030;15.396;2023-07-13T15:47:49;4.40;;;1.60;;
8399;SDS011;4237;47.030;15.396;2023-07-13T15:50:19;1.60;;;1.10;;
8399;SDS011;4237;47.030;15.396;2023-07-13T15:52:48;0.90;;;0.90;;
8399;SDS011;4237;47.030;15.396;2023-07-13T15:55:17;1.33;;;1.23;;
8399;SDS011;4237;47.030;15.396;2023-07-13T15:57:50;2.67;;;1.37;;
8399;SDS011;4237;47.030;15.396;2023-07-13T16:00:19;2.30;;;1.37;;
8399;SDS011;4237;47.030;15.396;2023-07-13T16:02:48;1.43;;;1.13;;
8399;SDS011;4237;47.030;15.396;2023-07-13T16:05:16;3.60;;;1.27;;
8399;SDS011;4237;47.030;15.396;2023-07-13T16:07:45;1.50;;;1.27;;
8399;SDS011;4237;47.030;15.396;2023-07-13T16:10:19;1.40;;;1.23;;
8399;SDS011;4237;47.030;15.396;2023-07-13T16:12:46;2.37;;;1.40;;
8399;SDS011;4237;47.030;15.396;2023-07-13T16:15:15;3.70;;;1.50;;
8399;SDS011;4237;47.030;15.396;2023-07-13T16:20:32;2.93;;;1.60;;
8399;SDS011;4237;47.030;15.396;2023-07-13T16:23:00;2.33;;;1.90;;